Time;durP1;ratioP1;P1;durP2;ratioP2;P2;SDS_P1;SDS_P2;PMS_P1;PMS_P2;Temp;Humidity;BMP_temperature;BMP_pressure;BME280_temperature;BME280_humidity;BME280_pressure;Samples;Min_cycle;Max_cycle;Signal;HPM_P1;HPM_P2
2021/03/23 00:00:26;;;;;;;2.92;1.98;;;;;;;3.90;58.56;98204.00;5053357;28;20029;-76
2021/03/23 00:02:57;;;;;;;3.25;1.73;;;;;;;3.92;58.63;98205.41;5051703;28;20538;-74
2021/03/23 00:05:24;;;;;;;3.65;1.65;;;;;;;3.79;58.58;98200.31;5052904;28;20120;-76
2021/03/23 00:07:49;;;;;;;2.08;1.95;;;;;;;3.68;58.87;98180.41;5051405;28;20009;-76
2021/03/23 00:10:18;;;;;;;4.82;2.60;;;;;;;3.90;58.25;98210.25;5052541;28;20107;-77
2021/03/23 00:12:46;;;;;;;6.43;2.58;;;;;;;3.88;58.10;98206.97;5052484;28;20025;-77
2021/03/23 00:15:12;;;;;;;3.85;1.73;;;;;;;3.87;58.36;98202.63;5051120;28;20025;-76
2021/03/23 00:17:38;;;;;;;2.35;1.50;;;;;;;3.87;58.01;98201.81;5052471;28;20032;-74
2021/03/23 00:20:05;;;;;;;;;;;;;;;3.89;57.82;98205.06;5052456;28;20029;-75
2021/03/23 00:22:33;;;;;;;2.13;1.92;;;;;;;3.89;57.49;98215.88;5053167;28;20312;-75
2021/03/23 00:24:58;;;;;;;3.13;1.85;;;;;;;3.88;57.42;98219.69;5052624;28;20485;-76
2021/03/23 00:27:24;;;;;;;3.28;1.75;;;;;;;3.90;56.90;98217.53;5053009;28;20038;-76
2021/03/23 00:29:49;;;;;;;2.75;1.48;;;;;;;3.86;56.90;98214.50;5053316;28;20500;-75
2021/03/23 00:32:14;;;;;;;;;;;;;;;3.89;56.68;98221.31;5052949;28;20021;-75
2021/03/23 00:34:40;;;;;;;2.55;1.85;;;;;;;3.86;57.09;98217.22;5052720;28;19913;-74
2021/03/23 00:37:05;;;;;;;;;;;;;;;3.88;56.79;98219.69;5052632;28;20021;-75
2021/03/23 00:39:35;;;;;;;4.03;2.15;;;;;;;3.84;56.82;98219.34;5052638;28;19916;-76
2021/03/23 00:42:00;;;;;;;2.85;1.80;;;;;;;3.83;56.53;98217.69;5053429;28;20029;-76
2021/03/23 00:44:27;;;;;;;3.17;1.33;;;;;;;3.79;56.33;98205.72;5053251;28;20013;-76
2021/03/23 00:46:53;;;;;;;3.90;1.58;;;;;;;3.81;56.45;98222.53;5052913;28;20055;-75
2021/03/23 00:49:20;;;;;;;2.95;1.70;;;;;;;3.78;56.41;98212.22;5052320;28;20005;-74
2021/03/23 00:51:45;;;;;;;4.45;1.73;;;;;;;3.81;56.32;98208.19;5050873;28;20435;-74
2021/03/23 00:54:11;;;;;;;3.95;2.20;;;;;;;3.79;56.57;98221.94;5051785;28;20033;-74
2021/03/23 00:56:36;;;;;;;;;;;;;;;3.82;56.57;98218.78;5054275;28;20029;-75
2021/03/23 00:59:02;;;;;;;5.03;1.92;;;;;;;3.72;56.48;98210.50;5050869;28;19912;-74
2021/03/23 01:01:29;;;;;;;;;;;;;;;3.79;56.51;98230.06;5052920;28;20032;-77
2021/03/23 01:03:55;;;;;;;3.10;1.92;;;;;;;3.76;56.83;98222.44;5051900;28;19912;-75
2021/03/23 01:06:20;;;;;;;4.68;2.28;;;;;;;3.75;56.66;98226.25;5051348;28;20036;-75
2021/03/23 01:08:46;;;;;;;3.15;1.58;;;;;;;3.80;56.51;98234.44;5052945;28;20029;-75
2021/03/23 01:11:11;;;;;;;;;;;;;;;3.79;56.29;98230.06;5053577;28;20113;-74
2021/03/23 01:13:37;;;;;;;1.60;1.30;;;;;;;3.75;55.79;98237.06;5052617;28;19943;-75
2021/03/23 01:16:04;;;;;;;;;;;;;;;3.76;55.75;98231.38;5053736;28;20401;-76
2021/03/23 01:18:29;;;;;;;1.27;1.17;;;;;;;3.71;56.02;98214.25;5056446;28;20420;-79
2021/03/23 01:20:54;;;;;;;;;;;;;;;3.74;55.92;98230.00;5057341;28;20051;-75
2021/03/23 01:23:20;;;;;;;5.07;1.45;;;;;;;3.74;55.54;98232.69;5052508;28;20008;-74
2021/03/23 01:25:45;;;;;;;;;;;;;;;3.76;55.60;98233.25;5052262;28;20048;-74
2021/03/23 01:28:11;;;;;;;1.70;1.38;;;;;;;3.72;55.47;98222.13;5051205;28;19912;-75
2021/03/23 01:30:36;;;;;;;;;;;;;;;3.78;55.45;98231.16;5053752;28;20033;-74
2021/03/23 01:33:02;;;;;;;2.95;1.67;;;;;;;3.73;55.61;98223.75;5051611;28;20347;-75
2021/03/23 01:35:27;;;;;;;;;;;;;;;3.75;55.23;98234.34;5051600;28;20082;-76
2021/03/23 01:37:54;;;;;;;3.10;1.52;;;;;;;3.71;55.85;98230.47;5050576;28;19963;-76
2021/03/23 01:40:23;;;;;;;1.85;1.67;;;;;;;3.75;55.63;98231.66;5051214;28;20035;-75
2021/03/23 01:42:58;;;;;;;3.13;1.52;;;;;;;3.69;55.81;98227.22;5051238;28;20028;-76
2021/03/23 01:45:34;;;;;;;3.60;1.63;;;;;;;3.79;55.22;98233.59;5050915;28;20052;-75
2021/03/23 01:48:02;;;;;;;1.48;1.38;;;;;;;3.68;55.31;98210.16;5051145;28;20021;-73
2021/03/23 01:50:28;;;;;;;3.33;1.58;;;;;;;3.71;55.43;98217.78;5054538;28;20670;-76
2021/03/23 01:53:00;;;;;;;2.10;1.58;;;;;;;3.67;54.97;98218.50;5054877;28;20029;-74
2021/03/23 01:55:25;;;;;;;2.25;1.65;;;;;;;3.74;55.16;98222.72;5053442;28;20056;-76
2021/03/23 01:57:52;;;;;;;2.10;1.55;;;;;;;3.77;55.02;98229.50;5056305;28;20107;-75
2021/03/23 02:00:20;;;;;;;3.53;1.40;;;;;;;3.78;55.02;98231.16;5061060;28;20033;-76
2021/03/23 02:02:46;;;;;;;3.35;1.73;;;;;;;3.74;55.03;98227.28;5055868;28;20033;-75
2021/03/23 02:05:23;;;;;;;1.77;1.48;;;;;;;3.75;55.01;98237.06;5053297;28;20037;-74
2021/03/23 02:07:48;;;;;;;;;;;;;;;3.81;55.01;98224.44;5054953;28;20033;-75
2021/03/23 02:10:15;;;;;;;5.17;1.60;;;;;;;3.78;55.10;98241.97;5054698;28;19921;-76
2021/03/23 02:12:40;;;;;;;3.53;1.20;;;;;;;3.68;54.77;98214.75;5054454;28;20037;-75
2021/03/23 02:15:06;;;;;;;2.13;1.27;;;;;;;3.73;55.13;98231.88;5054497;28;20028;-75
2021/03/23 02:17:37;;;;;;;5.03;1.55;;;;;;;3.70;54.60;98212.59;5054565;28;20025;-74
2021/03/23 02:20:15;;;;;;;2.92;1.80;;;;;;;3.81;54.58;98233.38;5054430;28;20448;-76
2021/03/23 02:23:02;;;;;;;3.42;1.67;;;;;;;3.81;54.83;98236.06;5054045;28;20086;-75
2021/03/23 02:25:28;;;;;;;2.58;1.52;;;;;;;3.66;54.77;98211.47;5054035;28;20108;-76
2021/03/23 02:27:53;;;;;;;2.45;1.70;;;;;;;3.75;54.95;98228.94;5053130;28;20120;-76
2021/03/23 02:30:22;;;;;;;;;;;;;;;3.81;54.56;98230.66;5055037;28;20746;-74
2021/03/23 02:32:48;;;;;;;3.25;1.40;;;;;;;3.77;54.41;98224.09;5053638;28;19916;-75
2021/03/23 02:35:13;;;;;;;3.95;1.92;;;;;;;3.78;53.92;98225.75;5053663;28;20032;-75
2021/03/23 02:37:41;;;;;;;1.38;1.15;;;;;;;3.85;54.02;98231.81;5053002;28;20025;-76
2021/03/23 02:40:07;;;;;;;3.33;1.60;;;;;;;3.83;53.95;98233.09;5053542;28;20041;-75
2021/03/23 02:42:34;;;;;;;2.22;1.48;;;;;;;3.85;54.07;98231.81;5054043;28;20473;-75
2021/03/23 02:44:59;;;;;;;2.75;1.40;;;;;;;3.84;53.97;98232.88;5053198;28;20033;-75
2021/03/23 02:47:25;;;;;;;2.90;1.75;;;;;;;3.80;54.09;98223.59;5054141;28;20051;-77
2021/03/23 02:49:50;;;;;;;;;;;;;;;3.82;54.14;98232.31;5054513;28;20036;-76
2021/03/23 02:52:18;;;;;;;2.70;1.25;;;;;;;3.77;54.34;98232.22;5055496;28;19917;-75
2021/03/23 02:54:43;;;;;;;3.05;1.85;;;;;;;3.79;54.27;98236.31;5053567;28;20389;-75
2021/03/23 02:57:09;;;;;;;1.42;1.25;;;;;;;3.77;54.08;98230.31;5054225;28;20028;-76
2021/03/23 02:59:35;;;;;;;2.47;1.20;;;;;;;3.74;54.23;98232.69;5053382;28;20025;-76
2021/03/23 03:02:03;;;;;;;3.15;1.48;;;;;;;3.77;54.31;98241.16;5054046;28;20497;-74
2021/03/23 03:04:28;;;;;;;2.33;2.10;;;;;;;3.69;54.46;98243.44;5052270;28;20033;-76
2021/03/23 03:06:53;;;;;;;1.42;1.33;;;;;;;3.74;54.16;98235.41;5053573;28;20520;-73
2021/03/23 03:09:19;;;;;;;;;;;;;;;3.74;54.15;98247.03;5055476;28;20029;-76
2021/03/23 03:11:44;;;;;;;1.58;1.17;;;;;;;3.70;54.38;98247.78;5055486;28;19916;-75
2021/03/23 03:14:09;;;;;;;;;;;;;;;3.66;54.03;98260.97;5056043;28;20029;-75
2021/03/23 03:16:35;;;;;;;1.60;1.40;;;;;;;3.58;53.99;98238.91;5057471;28;19916;-78
2021/03/23 03:19:00;;;;;;;3.83;1.38;;;;;;;3.67;54.07;98245.56;5055225;28;20112;-76
2021/03/23 03:21:26;;;;;;;;;;;;;;;3.70;54.07;98245.06;5054574;28;20029;-76
2021/03/23 03:23:51;;;;;;;1.80;1.17;;;;;;;3.65;53.94;98262.03;5053512;28;20003;-75
2021/03/23 03:26:16;;;;;;;3.13;1.60;;;;;;;3.39;54.05;98224.78;5053392;28;20021;-75
2021/03/23 03:28:49;;;;;;;4.70;1.95;;;;;;;3.59;54.37;98256.78;5053037;28;20051;-76
2021/03/23 03:31:21;;;;;;;2.00;1.35;;;;;;;3.57;54.48;98257.00;5048853;28;20028;-78
2021/03/23 03:33:46;;;;;;;1.70;1.20;;;;;;;3.51;54.45;98257.97;5044990;28;20882;-74
2021/03/23 03:36:12;;;;;;;2.13;1.48;;;;;;;3.50;54.53;98272.59;5035622;28;20053;-76
2021/03/23 03:38:37;;;;;;;2.88;1.52;;;;;;;3.23;55.02;98237.19;5054649;28;20545;-78
2021/03/23 03:41:03;;;;;;;;;;;;;;;3.41;55.01;98281.31;5054850;28;20021;-75
2021/03/23 03:43:31;;;;;;;4.03;1.52;;;;;;;3.37;55.23;98267.47;5052029;28;20420;-79
2021/03/23 03:45:57;;;;;;;2.88;1.38;;;;;;;3.34;55.69;98280.63;5045761;28;20033;-74
2021/03/23 03:48:22;;;;;;;4.13;1.60;;;;;;;3.26;55.71;98279.13;5043923;28;20012;-74
2021/03/23 03:50:48;;;;;;;3.58;1.50;;;;;;;3.28;55.85;98290.53;5052088;28;20039;-74
2021/03/23 03:53:13;;;;;;;3.38;1.48;;;;;;;3.20;56.32;98280.09;5033744;28;20474;-77
2021/03/23 03:55:41;;;;;;;3.20;1.65;;;;;;;3.13;56.41;98264.00;5032276;28;20479;-74
2021/03/23 03:58:07;;;;;;;3.90;1.80;;;;;;;3.07;56.53;98261.47;5032631;28;20041;-73
2021/03/23 04:00:34;;;;;;;2.10;1.52;;;;;;;3.13;57.14;98272.13;5031274;28;20044;-81
2021/03/23 04:03:01;;;;;;;2.42;1.83;;;;;;;3.07;57.18;98292.00;5031941;28;20083;-75
2021/03/23 04:05:36;;;;;;;3.35;1.58;;;;;;;2.90;57.71;98272.19;5050739;28;20025;-74
2021/03/23 04:08:03;;;;;;;3.00;1.48;;;;;;;2.98;56.55;98274.50;5052800;28;20440;-76
2021/03/23 04:10:29;;;;;;;5.47;1.67;;;;;;;3.02;56.57;98282.97;5052499;28;20025;-76
2021/03/23 04:12:55;;;;;;;1.70;1.25;;;;;;;2.96;56.87;98298.25;5052370;28;20032;-74
2021/03/23 04:15:28;;;;;;;1.60;1.35;;;;;;;2.81;57.97;98276.31;5052450;28;20033;-75
2021/03/23 04:17:53;;;;;;;3.58;1.67;;;;;;;2.64;59.57;98284.31;5050714;28;20079;-74
2021/03/23 04:20:19;;;;;;;3.60;1.88;;;;;;;2.42;60.91;98291.38;5051807;28;20905;-74
2021/03/23 04:22:46;;;;;;;2.65;1.48;;;;;;;2.28;62.10;98289.97;5052071;28;20024;-76
2021/03/23 04:25:13;;;;;;;4.97;2.03;;;;;;;2.16;62.74;98292.66;5051612;28;20609;-73
2021/03/23 04:27:38;;;;;;;3.10;1.85;;;;;;;2.04;63.73;98294.50;5051760;28;20111;-76
2021/03/23 04:30:06;;;;;;;3.22;2.00;;;;;;;1.93;64.40;98298.03;5052101;28;20019;-76
2021/03/23 04:32:32;;;;;;;3.63;1.92;;;;;;;1.90;64.54;98311.97;5051447;28;20493;-74
2021/03/23 04:34:57;;;;;;;3.58;2.13;;;;;;;1.84;64.92;98288.63;5051358;28;20057;-75
2021/03/23 04:37:23;;;;;;;4.88;2.42;;;;;;;1.75;65.45;98299.97;5049935;28;20025;-73
2021/03/23 04:39:48;;;;;;;7.03;2.47;;;;;;;1.70;65.55;98303.34;5051516;28;20052;-76
2021/03/23 04:42:13;;;;;;;6.93;3.22;;;;;;;1.88;65.42;98307.88;5051518;28;21027;-76
2021/03/23 04:44:39;;;;;;;4.35;1.50;;;;;;;1.76;65.86;98310.50;5051194;28;20083;-74
2021/03/23 04:47:05;;;;;;;3.50;2.17;;;;;;;1.70;66.05;98322.22;5043133;28;20025;-76
2021/03/23 04:49:30;;;;;;;5.20;2.55;;;;;;;1.44;66.78;98301.84;5047204;28;20040;-76
2021/03/23 04:51:55;;;;;;;;;;;;;;;1.60;66.66;98330.84;5051960;28;20021;-76
2021/03/23 04:54:21;;;;;;;9.05;4.82;;;;;;;1.41;67.27;98315.78;5050201;28;20589;-76
2021/03/23 04:56:46;;;;;;;;;;;;;;;1.48;67.13;98338.09;5050075;28;20029;-76
2021/03/23 04:59:12;;;;;;;4.65;2.53;;;;;;;1.39;67.31;98323.28;5050068;28;20011;-75
2021/03/23 05:01:40;;;;;;;5.28;3.35;;;;;;;1.26;67.82;98307.28;5043413;28;20025;-74
2021/03/23 05:04:09;;;;;;;3.60;2.17;;;;;;;1.15;68.14;98302.69;5031059;28;20029;-76
2021/03/23 05:06:35;;;;;;;4.03;2.65;;;;;;;1.39;67.36;98338.63;5032124;28;20034;-73
2021/03/23 05:09:01;;;;;;;5.28;3.70;;;;;;;1.46;67.61;98336.66;5050765;28;20090;-74
2021/03/23 05:11:30;;;;;;;5.88;3.35;;;;;;;1.46;67.33;98339.38;5041075;28;20437;-75
2021/03/23 05:13:56;;;;;;;4.32;2.30;;;;;;;1.34;67.80;98338.50;5037599;28;20084;-75
2021/03/23 05:16:23;;;;;;;4.45;3.03;;;;;;;1.40;67.63;98340.28;5047896;28;20502;-74
2021/03/23 05:18:49;;;;;;;4.72;2.72;;;;;;;1.32;67.76;98337.88;5052898;28;20063;-74
2021/03/23 05:21:14;;;;;;;10.93;3.10;;;;;;;1.44;67.66;98352.25;5042823;28;20162;-74
2021/03/23 05:23:43;;;;;;;3.90;2.50;;;;;;;1.42;67.56;98343.56;5030098;28;20029;-76
2021/03/23 05:26:09;;;;;;;5.68;3.40;;;;;;;1.51;67.44;98336.78;5030359;28;20029;-77
2021/03/23 05:28:35;;;;;;;3.33;3.03;;;;;;;1.51;67.56;98342.19;5032285;28;20032;-74
2021/03/23 05:31:01;;;;;;;8.23;4.72;;;;;;;1.68;67.34;98353.16;5038392;28;20025;-75
2021/03/23 05:33:28;;;;;;;6.10;3.10;;;;;;;1.75;66.98;98343.94;5037894;28;20048;-75
2021/03/23 05:35:58;;;;;;;6.10;3.13;;;;;;;1.76;66.95;98345.56;5047916;28;20021;-75
2021/03/23 05:38:29;;;;;;;7.43;3.17;;;;;;;1.94;66.74;98361.69;5041874;28;20051;-76
2021/03/23 05:41:41;;;;;;;7.72;3.20;;;;;;;1.94;66.40;98353.59;5049266;28;20049;-75
2021/03/23 05:44:37;;;;;;;5.15;3.22;;;;;;;2.13;66.47;98363.25;5047155;28;20029;-76
2021/03/23 05:47:02;;;;;;;4.45;3.05;;;;;;;2.12;65.88;98361.63;5043464;28;20520;-76
2021/03/23 05:49:43;;;;;;;17.65;3.30;;;;;;;2.17;65.56;98372.53;5059064;28;20037;-76
2021/03/23 05:52:24;;;;;;;5.10;2.95;;;;;;;2.45;64.98;98377.28;5043551;28;20037;-83
2021/03/23 05:55:27;;;;;;;3.80;2.30;;;;;;;2.64;64.29;98378.81;5048250;28;20060;-82
2021/03/23 05:57:52;;;;;;;5.93;2.58;;;;;;;2.80;63.61;98368.38;5030296;28;20109;-77
2021/03/23 06:00:34;;;;;;;4.20;2.90;;;;;;;3.02;63.26;98374.81;5048963;28;20498;-78
2021/03/23 06:03:00;;;;;;;3.30;2.70;;;;;;;3.03;62.83;98385.41;5048407;28;20385;-78
2021/03/23 06:05:44;;;;;;;5.63;2.88;;;;;;;3.09;61.65;98365.53;5037804;28;20025;-76
2021/03/23 06:08:30;;;;;;;3.50;3.20;;;;;;;3.22;61.28;98389.63;5047167;28;20075;-76
2021/03/23 06:11:18;;;;;;;8.45;4.25;;;;;;;3.55;60.24;98393.53;5046746;28;20059;-77
2021/03/23 06:14:16;;;;;;;5.47;2.58;;;;;;;3.71;59.50;98392.78;5046708;28;20029;-74
2021/03/23 06:17:00;;;;;;;6.38;2.30;;;;;;;4.03;58.99;98396.66;5046000;28;20029;-80
2021/03/23 06:19:44;;;;;;;4.90;2.75;;;;;;;4.33;57.95;98399.91;5044881;28;20025;-75
2021/03/23 06:22:24;;;;;;;6.43;3.25;;;;;;;4.67;56.37;98399.91;5047084;28;20040;-80
2021/03/23 06:25:05;;;;;;;3.83;2.65;;;;;;;5.14;54.44;98400.34;5045464;28;20028;-76
2021/03/23 06:27:38;;;;;;;4.30;2.72;;;;;;;5.28;53.67;98404.38;5044457;28;20025;-74
2021/03/23 06:30:18;;;;;;;4.25;2.42;;;;;;;5.33;53.16;98397.13;5046736;28;20029;-76
2021/03/23 06:32:55;;;;;;;4.35;2.95;;;;;;;5.17;53.19;98400.69;5047767;28;20029;-75
2021/03/23 06:35:31;;;;;;;3.55;2.50;;;;;;;5.34;52.97;98411.50;5052387;28;20037;-79
2021/03/23 06:37:57;;;;;;;;;;;;;;;5.43;52.19;98406.44;5054622;28;20537;-83
2021/03/23 06:40:30;;;;;;;3.55;2.50;;;;;;;5.39;52.51;98412.38;5052643;28;20007;-78
2021/03/23 06:43:13;;;;;;;4.15;2.30;;;;;;;5.57;52.33;98411.28;5053433;28;20078;-82
2021/03/23 06:45:39;;;;;;;3.03;2.42;;;;;;;5.61;51.72;98403.44;5054505;28;20028;-76
2021/03/23 06:48:21;;;;;;;5.13;1.83;;;;;;;5.67;50.95;98408.66;5054251;28;20025;-83
2021/03/23 06:50:48;;;;;;;4.60;2.40;;;;;;;5.83;50.77;98407.78;5056094;28;20056;-77
2021/03/23 06:53:16;;;;;;;5.15;2.85;;;;;;;6.14;49.91;98402.75;5054993;28;20033;-81
2021/03/23 06:55:45;;;;;;;4.00;2.40;;;;;;;6.49;48.70;98416.66;5053008;28;20063;-85
2021/03/23 06:58:30;;;;;;;3.28;1.77;;;;;;;6.62;48.31;98412.69;5052572;28;20108;-82
2021/03/23 07:01:24;;;;;;;4.70;2.33;;;;;;;6.79;47.13;98421.56;5053951;28;20028;-88
2021/03/23 07:03:53;;;;;;;4.15;2.08;;;;;;;6.50;48.57;98418.31;5052244;28;20481;-86
2021/03/23 07:06:25;;;;;;;5.07;2.17;;;;;;;6.49;48.05;98413.94;5052982;28;20378;-86
2021/03/23 07:09:18;;;;;;;3.55;1.92;;;;;;;6.83;48.70;98412.59;5052534;28;20031;-89
2021/03/23 07:12:10;;;;;;;3.50;2.17;;;;;;;6.80;47.83;98420.47;5033701;28;20481;-78
2021/03/23 07:14:43;;;;;;;3.45;2.63;;;;;;;7.10;47.32;98414.44;5045497;28;20489;-83
2021/03/23 07:17:08;;;;;;;2.22;1.48;;;;;;;7.28;47.39;98416.75;5032217;28;20033;-86
2021/03/23 07:20:10;;;;;;;4.43;2.42;;;;;;;7.20;47.17;98417.25;5046133;28;20036;-80
2021/03/23 07:22:48;;;;;;;3.92;1.85;;;;;;;7.41;46.42;98424.44;5040847;28;20037;-83
2021/03/23 07:25:39;;;;;;;5.30;2.20;;;;;;;7.70;46.82;98420.25;5051268;28;20036;-83
2021/03/23 07:28:33;;;;;;;4.85;2.40;;;;;;;7.72;44.62;98417.25;5053443;28;20429;-81
2021/03/23 07:31:23;;;;;;;3.22;2.03;;;;;;;7.54;44.96;98426.69;5054258;28;20028;-83
2021/03/23 07:34:10;;;;;;;6.50;2.60;;;;;;;8.23;44.84;98413.63;5053743;28;20473;-80
2021/03/23 07:36:42;;;;;;;5.25;1.80;;;;;;;9.25;41.64;98418.06;5054343;28;20074;-84
2021/03/23 07:39:15;;;;;;;4.55;1.88;;;;;;;9.87;39.68;98414.06;5054004;28;20049;-87
2021/03/23 07:42:18;;;;;;;3.92;2.22;;;;;;;9.67;39.39;98421.25;5054869;28;20017;-84
2021/03/23 07:44:52;;;;;;;5.40;2.95;;;;;;;9.80;39.16;98417.13;5068104;28;20029;-92
2021/03/23 07:47:30;;;;;;;8.48;2.97;;;;;;;10.13;37.61;98405.53;5072910;28;20032;-84
2021/03/23 07:50:04;;;;;;;3.78;2.45;;;;;;;10.67;37.21;98429.25;5064943;28;20029;-87
2021/03/23 07:52:39;;;;;;;6.13;2.80;;;;;;;11.38;35.63;98421.25;5073119;28;20029;-88
2021/03/23 07:55:16;;;;;;;13.77;2.55;;;;;;;12.49;33.82;98438.34;5062811;28;20040;-83
2021/03/23 07:58:02;;;;;;;6.03;3.45;;;;;;;13.31;32.00;98434.88;5054026;28;20075;-84
2021/03/23 08:01:05;;;;;;;6.38;3.28;;;;;;;12.48;33.49;98433.97;5053585;28;20048;-82
2021/03/23 08:03:52;;;;;;;6.75;2.05;;;;;;;13.40;32.58;98421.28;5053375;28;20025;-81
2021/03/23 08:06:38;;;;;;;3.50;1.75;;;;;;;14.78;29.79;98434.69;5055242;28;20029;-86
2021/03/23 08:09:03;;;;;;;3.35;1.77;;;;;;;13.72;31.66;98437.69;5056720;28;20078;-81
2021/03/23 08:12:19;;;;;;;6.65;2.67;;;;;;;13.73;31.51;98433.84;5056786;28;20020;-84
2021/03/23 08:14:53;;;;;;;4.20;2.00;;;;;;;12.57;32.87;98441.25;5039292;28;20040;-88
2021/03/23 08:17:37;;;;;;;4.07;2.10;;;;;;;13.97;30.92;98441.09;5057402;28;20033;-81
2021/03/23 08:20:27;;;;;;;5.53;2.25;;;;;;;13.66;30.39;98436.16;5053252;28;20029;-82
2021/03/23 08:23:23;;;;;;;4.60;3.00;;;;;;;14.22;30.34;98441.38;5053673;28;20087;-82
2021/03/23 08:25:56;;;;;;;3.53;2.20;;;;;;;14.36;30.26;98433.16;5055315;28;20055;-84
2021/03/23 08:28:48;;;;;;;6.22;2.33;;;;;;;16.34;27.88;98443.59;5052149;28;20029;-85
2021/03/23 08:31:23;;;;;;;4.88;1.70;;;;;;;15.99;27.01;98448.16;5051729;28;20033;-82
2021/03/23 08:34:15;;;;;;;7.03;2.85;;;;;;;14.55;28.53;98442.09;5052685;28;20036;-84
2021/03/23 08:36:59;;;;;;;4.93;2.05;;;;;;;14.42;28.63;98442.94;5054480;28;20029;-82
2021/03/23 08:39:44;;;;;;;2.33;1.98;;;;;;;13.43;30.12;98439.91;5054856;28;20041;-80
2021/03/23 08:42:17;;;;;;;7.47;2.13;;;;;;;14.27;27.84;98456.97;5055824;28;20032;-87
2021/03/23 08:44:53;;;;;;;6.18;3.22;;;;;;;14.92;27.81;98450.06;5056268;28;20104;-84
2021/03/23 08:47:19;;;;;;;3.25;1.85;;;;;;;16.33;25.99;98453.81;5058899;28;20032;-85
2021/03/23 08:49:45;;;;;;;5.65;3.35;;;;;;;16.24;25.37;98457.69;5057898;28;20488;-83
2021/03/23 08:52:39;;;;;;;5.80;2.45;;;;;;;14.74;26.27;98451.03;5058592;28;20025;-83
2021/03/23 08:55:30;;;;;;;4.63;1.67;;;;;;;14.55;26.72;98430.25;5060300;28;20055;-88
2021/03/23 08:58:11;;;;;;;2.88;1.90;;;;;;;14.91;26.24;98453.13;5049820;28;20040;-86
2021/03/23 09:00:37;;;;;;;3.95;2.22;;;;;;;14.89;25.86;98445.16;5056964;28;20494;-84
2021/03/23 09:03:48;;;;;;;4.53;1.63;;;;;;;14.54;26.26;98432.19;5058212;28;20052;-82
2021/03/23 09:06:17;;;;;;;3.17;2.08;;;;;;;15.10;25.58;98445.47;5054462;28;20056;-76
2021/03/23 09:08:43;;;;;;;1.83;1.48;;;;;;;14.98;26.05;98439.72;5051692;28;20374;-79
2021/03/23 09:11:13;;;;;;;2.10;1.30;;;;;;;15.53;25.17;98430.09;5054779;28;20021;-85
2021/03/23 09:17:21;;;;;;;1.67;1.25;;;;;;;15.18;24.43;98435.66;5079558;28;20059;-84
2021/03/23 09:19:59;;;;;;;3.42;1.45;;;;;;;15.60;23.64;98415.84;5077821;28;20033;-85
2021/03/23 09:22:29;;;;;;;1.92;1.15;;;;;;;14.75;24.85;98425.13;5073075;28;20012;-86
2021/03/23 09:25:33;;;;;;;1.95;1.48;;;;;;;15.84;24.89;98435.63;5077220;28;20028;-80
2021/03/23 09:28:04;;;;;;;2.25;1.60;;;;;;;16.00;24.28;98423.03;5074347;28;20033;-88
2021/03/23 09:30:50;;;;;;;2.30;1.58;;;;;;;15.20;25.54;98411.34;5076171;28;20021;-96
2021/03/23 09:33:21;;;;;;;;;;;;;;;14.33;26.49;98433.78;5074666;28;20017;-84
2021/03/23 09:36:15;;;;;;;2.35;1.98;;;;;;;15.73;25.30;98437.00;5076372;28;19901;-91
2021/03/23 09:38:52;;;;;;;3.08;1.75;;;;;;;14.94;26.10;98417.47;5076773;28;20041;-87
2021/03/23 09:41:20;;;;;;;7.50;6.05;;;;;;;15.64;25.75;98430.63;5063168;28;20029;-76
2021/03/23 09:43:47;;;;;;;2.78;1.92;;;;;;;16.22;24.97;98435.09;5054408;28;20029;-84
2021/03/23 09:46:22;;;;;;;5.28;2.60;;;;;;;17.10;24.09;98429.06;5057566;28;20031;-80
2021/03/23 09:49:11;;;;;;;4.72;2.38;;;;;;;17.33;23.24;98432.47;5056011;28;20369;-80
2021/03/23 09:51:51;;;;;;;3.20;2.03;;;;;;;16.66;23.98;98423.88;5049921;28;20067;-82
2021/03/23 09:54:24;;;;;;;2.90;2.03;;;;;;;14.22;26.56;98419.38;5048373;28;20087;-77
2021/03/23 09:56:51;;;;;;;2.45;1.48;;;;;;;15.42;25.54;98420.41;5049830;28;20103;-80
2021/03/23 09:59:45;;;;;;;5.93;1.58;;;;;;;16.25;24.15;98415.13;5050105;28;20029;-78
2021/03/23 10:02:22;;;;;;;1.70;1.30;;;;;;;17.21;22.97;98412.13;5050421;28;20032;-79
2021/03/23 10:04:49;;;;;;;3.25;1.80;;;;;;;18.05;21.54;98398.41;5048852;28;20025;-81
2021/03/23 10:07:39;;;;;;;3.70;1.92;;;;;;;18.28;21.09;98397.00;5050007;28;20039;-80
2021/03/23 10:10:32;;;;;;;15.85;1.88;;;;;;;17.34;22.42;98394.56;5053152;28;20044;-80
2021/03/23 10:13:15;;;;;;;4.28;1.73;;;;;;;18.10;21.63;98390.75;5053648;28;20534;-80
2021/03/23 10:15:43;;;;;;;2.47;1.45;;;;;;;18.54;20.84;98396.88;5053577;28;20037;-81
2021/03/23 10:18:16;;;;;;;3.42;2.00;;;;;;;18.63;21.19;98392.06;5052181;28;20025;-80
2021/03/23 10:20:46;;;;;;;3.30;1.92;;;;;;;18.69;21.20;98390.72;5053254;28;20028;-80
2021/03/23 10:23:12;;;;;;;6.68;1.77;;;;;;;20.03;19.73;98383.66;5052188;28;20079;-80
2021/03/23 10:25:41;;;;;;;2.42;1.50;;;;;;;18.63;20.46;98372.66;5053241;28;20029;-80
2021/03/23 10:28:06;;;;;;;3.83;1.63;;;;;;;18.07;20.81;98390.59;5052072;28;20627;-80
2021/03/23 10:30:36;;;;;;;4.28;2.72;;;;;;;16.57;21.89;98381.63;5053450;28;20035;-81
2021/03/23 10:33:20;;;;;;;2.83;1.95;;;;;;;17.62;21.90;98391.09;5052210;28;20447;-79
2021/03/23 10:35:46;;;;;;;5.75;2.30;;;;;;;18.43;21.08;98395.59;5052221;28;20025;-79
2021/03/23 10:38:26;;;;;;;5.47;1.50;;;;;;;17.14;22.02;98391.34;5052820;28;20051;-78
2021/03/23 10:40:57;;;;;;;2.33;1.45;;;;;;;15.61;23.28;98378.88;5054381;28;20033;-82
2021/03/23 10:43:37;;;;;;;3.22;1.75;;;;;;;15.68;23.26;98379.22;5036132;28;20037;-79
2021/03/23 10:46:25;;;;;;;3.22;1.80;;;;;;;17.60;21.60;98384.28;5053335;28;20028;-78
2021/03/23 10:48:51;;;;;;;3.63;2.17;;;;;;;17.97;21.60;98361.31;5053154;28;20060;-81
2021/03/23 10:51:28;;;;;;;2.33;1.42;;;;;;;18.75;20.58;98366.38;5052241;28;20021;-81
2021/03/23 10:53:59;;;;;;;1.90;1.52;;;;;;;19.49;20.44;98380.22;5053127;28;20036;-81
2021/03/23 10:56:36;;;;;;;5.07;2.20;;;;;;;19.70;19.55;98378.19;5051735;28;20025;-80
2021/03/23 10:59:07;;;;;;;3.17;1.70;;;;;;;18.72;20.53;98373.41;5052866;28;20678;-79
2021/03/23 11:01:33;;;;;;;3.00;1.58;;;;;;;18.67;20.37;98355.00;5052852;28;20035;-79
2021/03/23 11:04:16;;;;;;;4.20;2.05;;;;;;;17.97;21.20;98369.63;5051761;28;20119;-81
2021/03/23 11:06:41;;;;;;;3.65;1.75;;;;;;;18.79;20.56;98368.16;5052632;28;20108;-82
2021/03/23 11:09:10;;;;;;;4.00;1.92;;;;;;;17.63;21.38;98344.88;5052657;28;20112;-81
2021/03/23 11:11:36;;;;;;;2.83;2.15;;;;;;;16.72;21.61;98347.97;5053609;28;20393;-86
2021/03/23 11:14:02;;;;;;;4.55;1.20;;;;;;;16.14;22.37;98356.66;5055689;28;20374;-83
2021/03/23 11:16:32;;;;;;;3.28;1.98;;;;;;;15.46;23.84;98335.13;5053368;28;20528;-84
2021/03/23 11:19:00;;;;;;;7.00;1.98;;;;;;;14.06;25.18;98337.50;5052700;28;20027;-82
2021/03/23 11:21:30;;;;;;;2.17;1.90;;;;;;;14.04;25.61;98337.78;5054029;28;20388;-83
2021/03/23 11:23:56;;;;;;;2.75;2.00;;;;;;;13.19;26.55;98348.56;5052795;28;20033;-79
2021/03/23 11:26:25;;;;;;;3.92;2.28;;;;;;;12.45;27.43;98338.53;5054113;28;20017;-79
2021/03/23 11:28:56;;;;;;;3.35;2.47;;;;;;;12.15;27.51;98332.38;5057177;28;20051;-76
2021/03/23 11:31:23;;;;;;;4.00;2.10;;;;;;;11.84;28.33;98350.34;5053999;28;20021;-79
2021/03/23 11:33:49;;;;;;;4.57;2.50;;;;;;;12.32;27.62;98338.16;5053077;28;20025;-79
2021/03/23 11:36:15;;;;;;;6.00;2.70;;;;;;;11.69;28.01;98334.06;5051569;28;20061;-82
2021/03/23 11:38:41;;;;;;;2.63;1.75;;;;;;;11.42;28.49;98317.41;5051305;28;20060;-80
2021/03/23 11:41:16;;;;;;;2.95;1.85;;;;;;;11.67;28.61;98314.38;5051713;28;20044;-78
2021/03/23 11:43:46;;;;;;;7.38;2.45;;;;;;;11.84;28.40;98328.41;5052296;28;20120;-85
2021/03/23 11:46:27;;;;;;;3.78;2.33;;;;;;;11.69;28.08;98315.72;5050111;28;20021;-77
2021/03/23 11:49:04;;;;;;;4.63;3.10;;;;;;;11.68;27.98;98325.03;5050394;28;20029;-74
2021/03/23 11:51:30;;;;;;;4.22;1.75;;;;;;;11.65;28.59;98316.59;5050397;28;20028;-78
2021/03/23 11:53:55;;;;;;;4.82;2.08;;;;;;;11.59;27.96;98307.59;5047500;28;20025;-76
2021/03/23 11:56:21;;;;;;;3.22;1.52;;;;;;;11.40;28.60;98312.25;5049748;28;20036;-76
2021/03/23 11:58:47;;;;;;;2.90;1.85;;;;;;;11.32;28.55;98312.88;5050859;28;20017;-74
2021/03/23 12:01:13;;;;;;;4.47;2.15;;;;;;;10.88;29.01;98312.25;5050533;28;20095;-74
2021/03/23 12:03:39;;;;;;;4.32;1.83;;;;;;;11.08;28.80;98301.09;5049193;28;20025;-75
2021/03/23 12:06:06;;;;;;;3.50;2.28;;;;;;;11.29;28.54;98307.97;5050331;28;20033;-74
2021/03/23 12:09:00;;;;;;;9.75;2.85;;;;;;;11.03;29.46;98312.91;5049781;28;20017;-77
2021/03/23 12:11:33;;;;;;;2.50;2.25;;;;;;;10.85;29.34;98315.56;5049071;28;20048;-74